Grand Canyon, Arizona
Current Conditions -  °F | °C
As of 1:54 PM on Monday 22 Dec 2014 (Local Time) from KGCN Reporting Station
Clear Clear  
Wind Chill: 51°   Ceiling: Unl
Heat Index: 51°   Visibility: 10mi
Dew Point: 33°   Wind: 13mph
Humidity: 50%   Direction: 310°NW
Pressure: 30"   Gusts: 24mph
Location:  36.05°N, 112.14°W
Report Text: KGCN 222054Z 31011G21KT 260V340 10SM CLR 11/01 A3000 RMK AO2 SLP135 T01060006 56025
Loading
Personal Weather Stations






























Interactive Weather Map New forecast layout! Learn more

10-Day Weather Forecast

Advertisements
Track Severe Weather on mobile